Time;durP1;ratioP1;P1;durP2;ratioP2;P2;SDS_P1;SDS_P2;PMS_P1;PMS_P2;Temp;Humidity;BMP_temperature;BMP_pressure;BME280_temperature;BME280_humidity;BME280_pressure;Samples;Min_cycle;Max_cycle;Signal;HPM_P1;HPM_P2
2021/03/01 00:03:17;;;;;;;0.70;0.63;;;12.80;99.90;;;;;;20690209;28;20242;-67
2021/03/01 00:13:21;;;;;;;2.37;0.50;;;13.00;99.90;;;;;;20690929;28;20373;-69
2021/03/01 00:23:24;;;;;;;0.50;0.50;;;13.00;99.90;;;;;;20746222;28;20225;-69
2021/03/01 00:33:27;;;;;;;0.20;0.20;;;13.00;99.90;;;;;;20773485;28;20457;-69
2021/03/01 00:43:31;;;;;;;0.30;0.30;;;13.10;99.90;;;;;;20771524;28;20317;-68
2021/03/01 00:53:34;;;;;;;0.40;0.40;;;13.00;99.90;;;;;;20771885;28;20300;-71
2021/03/01 01:03:37;;;;;;;0.53;0.20;;;13.00;99.90;;;;;;20770999;28;20238;-68
2021/03/01 01:13:41;;;;;;;1.83;0.90;;;12.90;99.90;;;;;;20770780;28;20437;-68
2021/03/01 01:23:44;;;;;;;0.27;0.27;;;13.00;99.90;;;;;;20710357;28;20219;-67
2021/03/01 01:33:47;;;;;;;1.40;0.73;;;12.90;99.90;;;;;;20702798;28;20213;-68
2021/03/01 01:43:50;;;;;;;1.00;0.77;;;12.90;99.90;;;;;;20701767;28;20241;-68
2021/03/01 01:53:53;;;;;;;0.50;0.50;;;13.00;99.90;;;;;;20702660;28;20206;-68
2021/03/01 02:04:03;;;;;;;0.30;0.30;;;12.90;99.90;;;;;;20700180;28;20742;-68
2021/03/01 02:14:14;;;;;;;0.70;0.43;;;12.90;99.90;;;;;;20699865;28;20202;-68
2021/03/01 02:24:22;;;;;;;0.97;0.57;;;12.90;99.90;;;;;;20763005;28;21033;-70
2021/03/01 02:34:32;;;;;;;1.93;1.37;;;12.90;99.90;;;;;;20779167;28;20210;-68
2021/03/01 02:44:36;;;;;;;4.23;0.63;;;12.90;99.90;;;;;;20779768;28;20226;-68
2021/03/01 02:54:42;;;;;;;0.20;0.10;;;12.80;99.90;;;;;;20777795;28;20206;-69
2021/03/01 03:04:48;;;;;;;0.20;0.10;;;12.80;99.90;;;;;;20777727;28;20699;-68
2021/03/01 03:14:51;;;;;;;0.30;0.30;;;12.80;99.90;;;;;;20776984;28;20192;-67
2021/03/01 03:24:55;;;;;;;0.40;0.40;;;12.80;99.90;;;;;;20707387;28;20223;-69
2021/03/01 03:34:57;;;;;;;2.30;0.77;;;12.80;99.90;;;;;;20696290;28;20597;-68
2021/03/01 03:45:02;;;;;;;4.27;0.83;;;12.70;99.90;;;;;;20700686;28;20230;-69
2021/03/01 03:55:07;;;;;;;0.83;0.57;;;12.80;99.90;;;;;;20691428;28;20667;-68
2021/03/01 04:05:14;;;;;;;0.23;0.23;;;12.80;99.90;;;;;;20690924;28;20258;-68
2021/03/01 04:15:19;;;;;;;0.40;0.40;;;12.80;99.90;;;;;;20654531;28;20315;-68
2021/03/01 04:25:23;;;;;;;1.10;1.00;;;12.80;99.90;;;;;;20761517;28;20551;-68
2021/03/01 04:35:27;;;;;;;0.27;0.27;;;12.70;99.90;;;;;;20749616;28;20210;-68
2021/03/01 04:45:33;;;;;;;0.97;0.53;;;12.60;99.90;;;;;;20686825;28;20225;-68
2021/03/01 04:55:36;;;;;;;1.27;0.50;;;12.70;99.90;;;;;;20689835;28;20210;-69
2021/03/01 05:05:42;;;;;;;0.40;0.40;;;12.80;99.90;;;;;;20629931;23;20235;-71
2021/03/01 05:15:46;;;;;;;0.30;0.30;;;12.70;99.90;;;;;;20542816;28;20560;-72
2021/03/01 05:25:50;;;;;;;0.43;0.23;;;12.70;99.90;;;;;;20617987;28;20226;-71
2021/03/01 05:35:53;;;;;;;0.50;0.50;;;12.70;99.90;;;;;;20625190;28;20195;-73
2021/03/01 05:45:58;;;;;;;0.23;0.23;;;12.80;99.90;;;;;;20607356;28;20223;-71
2021/03/01 05:56:01;;;;;;;0.73;0.20;;;12.70;99.90;;;;;;20622553;28;20199;-73
2021/03/01 06:06:06;;;;;;;0.20;0.10;;;12.80;99.90;;;;;;20621450;28;20246;-72
2021/03/01 06:16:09;;;;;;;1.60;1.47;;;13.10;99.90;;;;;;20603266;28;20269;-72
2021/03/01 06:26:28;;;;;;;2.57;1.07;;;13.20;99.90;;;;;;20600635;28;20309;-71
2021/03/01 06:36:55;;;;;;;4.83;1.00;;;13.30;99.90;;;;;;20618794;28;21199;-71
2021/03/01 06:46:59;;;;;;;0.53;0.53;;;13.40;99.90;;;;;;20617819;28;20637;-74
2021/03/01 06:57:01;;;;;;;0.43;0.43;;;13.50;99.90;;;;;;20612973;28;20569;-74
2021/03/01 07:07:07;;;;;;;4.33;1.30;;;13.60;99.90;;;;;;20612848;28;21105;-73
2021/03/01 07:17:10;;;;;;;0.50;0.50;;;13.60;99.90;;;;;;20574790;28;20279;-74
2021/03/01 07:27:39;;;;;;;8.87;1.73;;;13.70;99.90;;;;;;20585106;28;20215;-73
2021/03/01 07:37:42;;;;;;;2.20;1.37;;;13.70;99.90;;;;;;20602751;28;20286;-74
2021/03/01 07:47:45;;;;;;;17.30;1.03;;;14.10;99.90;;;;;;20614846;28;20238;-74
2021/03/01 07:58:01;;;;;;;1.43;0.60;;;14.30;99.90;;;;;;20611976;28;20691;-75
2021/03/01 08:08:04;;;;;;;0.77;0.70;;;14.50;99.90;;;;;;20612525;28;20241;-71
2021/03/01 08:18:11;;;;;;;0.80;0.80;;;14.70;99.90;;;;;;20602478;28;20203;-74
2021/03/01 08:28:42;;;;;;;15.67;2.47;;;14.80;99.90;;;;;;20607660;28;20306;-74
2021/03/01 08:38:50;;;;;;;3.97;1.13;;;15.20;99.90;;;;;;20612346;28;20441;-73
2021/03/01 08:48:56;;;;;;;0.90;0.90;;;15.40;99.90;;;;;;20623967;28;20230;-73
2021/03/01 08:58:58;;;;;;;1.60;1.23;;;15.60;99.90;;;;;;20625358;28;20444;-73
2021/03/01 09:09:08;;;;;;;1.83;1.73;;;15.80;99.90;;;;;;20661303;28;20238;-74
2021/03/01 09:19:16;;;;;;;3.22;2.45;;;16.00;99.90;;;;;;20654264;28;21004;-72
2021/03/01 09:29:20;;;;;;;2.40;1.67;;;16.30;99.90;;;;;;20617193;28;20223;-74
2021/03/01 09:39:25;;;;;;;4.90;2.07;;;16.60;99.90;;;;;;20564156;28;20564;-75
2021/03/01 09:49:30;;;;;;;1.63;1.17;;;16.50;99.90;;;;;;20538500;28;20984;-73
2021/03/01 09:59:34;;;;;;;0.90;0.83;;;15.90;99.90;;;;;;20535222;28;20193;-74
2021/03/01 10:09:38;;;;;;;5.47;2.33;;;16.50;99.90;;;;;;20536520;28;20366;-74
2021/03/01 10:19:41;;;;;;;1.23;0.93;;;17.10;99.90;;;;;;20558425;28;20203;-72
2021/03/01 10:29:46;;;;;;;2.30;0.97;;;17.10;99.90;;;;;;20571336;28;20864;-75
2021/03/01 10:39:49;;;;;;;1.37;1.13;;;17.00;99.90;;;;;;20548571;28;20611;-74
2021/03/01 10:49:54;;;;;;;6.20;1.20;;;17.30;99.90;;;;;;20614735;28;20231;-74
2021/03/01 10:59:59;;;;;;;7.97;2.53;;;17.30;99.90;;;;;;20591223;28;20438;-74
2021/03/01 11:10:03;;;;;;;2.87;1.50;;;17.70;99.90;;;;;;20613835;28;20238;-76
2021/03/01 11:20:07;;;;;;;2.63;2.00;;;18.30;99.90;;;;;;20594576;28;20223;-75
2021/03/01 11:30:13;;;;;;;4.07;2.30;;;18.60;99.90;;;;;;20611708;28;20645;-74
2021/03/01 11:40:15;;;;;;;1.43;1.17;;;18.70;99.90;;;;;;20611017;28;20342;-75
2021/03/01 11:50:19;;;;;;;2.83;1.80;;;19.80;99.90;;;;;;20610443;28;20441;-73
2021/03/01 12:00:22;;;;;;;2.10;1.00;;;19.10;99.90;;;;;;20607900;28;20246;-73
2021/03/01 12:10:46;;;;;;;1.80;1.10;;;17.80;99.90;;;;;;20607723;28;20591;-75
2021/03/01 12:20:49;;;;;;;8.80;1.73;;;19.00;99.90;;;;;;20591920;28;20525;-73
2021/03/01 12:30:52;;;;;;;0.83;0.80;;;18.20;99.90;;;;;;20607525;28;20223;-73
2021/03/01 12:41:15;;;;;;;1.63;1.17;;;17.40;99.90;;;;;;20601016;28;20191;-71
2021/03/01 12:51:19;;;;;;;2.80;2.53;;;17.30;99.90;;;;;;20523176;28;20270;-72
2021/03/01 13:01:21;;;;;;;0.77;0.60;;;17.30;99.90;;;;;;20548272;28;20251;-72
2021/03/01 13:11:45;;;;;;;7.63;0.90;;;17.10;99.90;;;;;;20605448;28;20369;-71
2021/03/01 13:21:48;;;;;;;6.53;1.23;;;17.30;99.90;;;;;;20589783;28;20449;-73
2021/03/01 13:31:52;;;;;;;9.93;1.63;;;17.30;99.90;;;;;;20613778;28;20491;-74
2021/03/01 13:42:14;;;;;;;4.93;2.03;;;20.00;99.90;;;;;;20612493;28;20590;-75
2021/03/01 13:52:18;;;;;;;2.23;1.00;;;20.40;99.90;;;;;;20615983;28;20480;-72
2021/03/01 14:02:21;;;;;;;8.20;1.90;;;19.60;99.90;;;;;;20617311;28;20232;-72
2021/03/01 14:12:31;;;;;;;2.30;1.87;;;20.40;99.90;;;;;;20614402;28;20231;-71
2021/03/01 14:22:34;;;;;;;1.37;1.07;;;18.90;99.90;;;;;;20614620;28;20184;-72
2021/03/01 14:32:38;;;;;;;1.60;0.80;;;18.70;99.90;;;;;;20612111;28;20235;-71
2021/03/01 14:43:06;;;;;;;0.90;0.87;;;17.80;99.90;;;;;;20608316;28;20195;-72
2021/03/01 14:53:11;;;;;;;3.33;2.47;;;18.00;99.90;;;;;;20559995;28;20246;-70
2021/03/01 15:03:14;;;;;;;0.57;0.57;;;18.30;99.90;;;;;;20587270;28;20707;-71
2021/03/01 15:13:21;;;;;;;2.00;1.60;;;17.90;99.90;;;;;;20576533;28;20857;-71
2021/03/01 15:23:24;;;;;;;2.57;1.30;;;17.20;99.90;;;;;;20599469;28;20306;-71
2021/03/01 15:33:28;;;;;;;6.97;3.10;;;18.00;99.90;;;;;;20603561;28;20373;-71
2021/03/01 15:43:51;;;;;;;2.87;1.27;;;17.60;99.90;;;;;;20606938;28;20204;-70
2021/03/01 15:53:54;;;;;;;4.57;1.00;;;17.10;99.90;;;;;;20606072;28;20204;-69
2021/03/01 16:03:57;;;;;;;0.97;0.87;;;16.80;99.90;;;;;;20605614;28;20238;-71
2021/03/01 16:14:10;;;;;;;13.50;1.50;;;16.50;99.90;;;;;;20549230;28;20278;-70
2021/03/01 16:24:13;;;;;;;0.63;0.47;;;16.40;99.90;;;;;;20601153;28;20266;-70
2021/03/01 16:34:18;;;;;;;1.07;0.93;;;16.80;99.90;;;;;;20599472;28;20204;-70
2021/03/01 16:44:28;;;;;;;0.20;0.10;;;15.90;99.90;;;;;;20583537;28;20211;-69
2021/03/01 16:54:32;;;;;;;1.17;0.67;;;15.80;99.90;;;;;;20563969;28;20196;-71
2021/03/01 17:04:47;;;;;;;0.97;0.90;;;15.70;99.90;;;;;;20569268;28;20239;-70
2021/03/01 17:14:57;;;;;;;1.43;1.33;;;15.10;99.90;;;;;;20564132;28;20219;-70
2021/03/01 17:25:02;;;;;;;2.10;0.67;;;15.00;99.90;;;;;;20521716;28;20216;-69
2021/03/01 17:35:12;;;;;;;1.23;1.13;;;14.70;99.90;;;;;;20596916;28;20270;-69
2021/03/01 17:45:20;;;;;;;0.20;0.20;;;14.50;99.90;;;;;;20622967;28;20271;-69
2021/03/01 17:55:28;;;;;;;2.40;1.03;;;14.30;99.90;;;;;;20616666;28;20199;-72
2021/03/01 18:05:32;;;;;;;2.77;1.10;;;14.00;99.90;;;;;;20593535;28;20243;-70
2021/03/01 18:15:42;;;;;;;1.00;0.93;;;14.00;99.90;;;;;;20616121;28;20258;-70
2021/03/01 18:25:46;;;;;;;0.63;0.63;;;13.80;99.90;;;;;;20532390;28;20231;-71
2021/03/01 18:35:57;;;;;;;0.43;0.40;;;13.60;99.90;;;;;;20582103;28;21013;-70
2021/03/01 18:46:05;;;;;;;4.83;1.63;;;13.50;99.90;;;;;;20615529;28;20728;-72
2021/03/01 18:56:09;;;;;;;0.93;0.93;;;13.60;99.90;;;;;;20544340;28;20193;-71
2021/03/01 19:06:13;;;;;;;2.87;1.57;;;13.60;99.90;;;;;;20528173;28;20650;-71
2021/03/01 19:16:23;;;;;;;2.07;1.80;;;13.40;99.90;;;;;;20548989;28;20462;-71
2021/03/01 19:26:28;;;;;;;2.00;1.13;;;13.50;99.90;;;;;;20567264;28;20554;-70
2021/03/01 19:36:31;;;;;;;1.00;0.93;;;13.40;99.90;;;;;;20581155;28;20568;-72
2021/03/01 19:46:41;;;;;;;0.83;0.83;;;13.20;99.90;;;;;;20570088;28;20720;-70
2021/03/01 19:56:45;;;;;;;1.73;1.63;;;13.10;99.90;;;;;;20585042;28;20234;-71
2021/03/01 20:06:48;;;;;;;4.23;2.43;;;13.10;99.90;;;;;;20588361;28;20259;-70
2021/03/01 20:17:08;;;;;;;1.23;1.07;;;13.10;99.90;;;;;;20595346;28;20192;-70
2021/03/01 20:27:11;;;;;;;1.03;0.80;;;13.10;99.90;;;;;;20528346;28;20750;-70
2021/03/01 20:37:15;;;;;;;1.63;1.53;;;13.10;99.90;;;;;;20636642;28;20871;-69
2021/03/01 20:47:28;;;;;;;2.77;2.50;;;13.20;99.90;;;;;;20685844;28;20215;-71
2021/03/01 20:57:36;;;;;;;0.97;0.87;;;13.40;99.90;;;;;;20704657;28;20282;-72
2021/03/01 21:07:39;;;;;;;1.93;1.47;;;13.40;99.90;;;;;;20702649;28;20222;-71
2021/03/01 21:17:56;;;;;;;2.50;2.27;;;13.30;99.90;;;;;;20691611;28;20194;-72
2021/03/01 21:28:03;;;;;;;1.57;1.40;;;13.30;99.90;;;;;;20621574;28;20235;-71
2021/03/01 21:38:08;;;;;;;4.20;1.80;;;13.30;99.90;;;;;;20677191;28;20194;-70
2021/03/01 21:48:15;;;;;;;1.60;1.10;;;13.30;99.90;;;;;;20683464;28;20361;-71
2021/03/01 21:58:19;;;;;;;1.57;1.13;;;13.40;99.90;;;;;;20621734;28;20196;-70
2021/03/01 22:08:23;;;;;;;1.93;1.03;;;13.50;99.90;;;;;;20575898;28;20235;-70
2021/03/01 22:18:38;;;;;;;0.83;0.83;;;13.60;99.90;;;;;;20793397;23;20252;-71
2021/03/01 22:28:46;;;;;;;1.37;0.90;;;13.40;99.90;;;;;;20774483;28;20532;-71
2021/03/01 22:38:52;;;;;;;12.57;2.17;;;13.30;99.90;;;;;;20835193;28;20244;-71
2021/03/01 22:48:58;;;;;;;3.17;2.03;;;13.20;99.90;;;;;;20857877;28;20332;-70
2021/03/01 22:59:03;;;;;;;1.53;0.97;;;13.10;99.90;;;;;;20858161;28;20194;-69
2021/03/01 23:09:08;;;;;;;3.20;2.50;;;13.10;99.90;;;;;;20855160;28;20210;-72
2021/03/01 23:19:17;;;;;;;1.37;0.60;;;13.20;99.90;;;;;;20794258;28;20226;-72
2021/03/01 23:29:31;;;;;;;1.40;1.00;;;13.20;99.90;;;;;;20776275;28;20604;-73
2021/03/01 23:39:35;;;;;;;0.53;0.53;;;13.10;99.90;;;;;;20775798;28;20309;-73
2021/03/01 23:49:46;;;;;;;0.50;0.50;;;13.20;99.90;;;;;;20795014;28;20299;-69
2021/03/01 23:59:50;;;;;;;3.57;1.60;;;13.10;99.90;;;;;;20775830;28;20267;-70
